Time;durP1;ratioP1;P1;durP2;ratioP2;P2;SDS_P1;SDS_P2;PMS_P1;PMS_P2;Temp;Humidity;BMP_temperature;BMP_pressure;BME280_temperature;BME280_humidity;BME280_pressure;Samples;Min_cycle;Max_cycle;Signal;HPM_P1;HPM_P2
2021/04/25 00:00:23;;;;;;;;;;;;;;;22.56;33.27;102610.88;2166877;40;115624;-57
2021/04/25 00:01:55;;;;;;;;;;;;;;;22.54;33.26;102613.94;2168316;40;115816;-58
2021/04/25 00:03:27;;;;;;;;;;;;;;;22.53;33.07;102606.63;2162833;40;116067;-56
2021/04/25 00:04:58;;;;;;;;;;;;;;;22.53;33.40;102600.97;2156845;40;115752;-54
2021/04/25 00:06:32;;;;;;;;;;;;;;;22.53;33.40;102605.81;2160968;40;114030;-58
2021/04/25 00:08:03;;;;;;;;;;;;;;;22.51;33.32;102608.03;2165859;40;113884;-58
2021/04/25 00:09:35;;;;;;;;;;;;;;;22.52;33.36;102602.13;2167632;40;113741;-59
2021/04/25 00:11:09;;;;;;;;;;;;;;;22.50;33.22;102606.34;2166940;40;113911;-58
2021/04/25 00:12:42;;;;;;;;;;;;;;;22.46;33.20;102602.41;2165423;40;113839;-55
2021/04/25 00:14:13;;;;;;;;;;;;;;;22.49;33.20;102611.13;2161862;40;115561;-55
2021/04/25 00:15:44;;;;;;;;;;;;;;;22.49;33.11;102601.84;2168924;40;114186;-60
2021/04/25 00:17:16;;;;;;;;;;;;;;;22.47;33.44;102596.50;2166935;40;113690;-59
2021/04/25 00:18:47;;;;;;;;;;;;;;;22.47;33.15;102592.84;2167126;40;114100;-56
2021/04/25 00:20:20;;;;;;;;;;;;;;;22.45;33.39;102609.16;2165022;40;113791;-55
2021/04/25 00:21:52;;;;;;;;;;;;;;;22.44;33.16;102602.69;2158614;40;113943;-58
2021/04/25 00:23:24;;;;;;;;;;;;;;;22.43;33.00;102608.63;2151799;40;113767;-54
2021/04/25 00:24:55;;;;;;;;;;;;;;;22.42;33.25;102604.09;2161685;40;113825;-57
2021/04/25 00:26:27;;;;;;;;;;;;;;;22.42;33.00;102606.91;2166500;40;115776;-56
2021/04/25 00:27:58;;;;;;;;;;;;;;;22.39;33.24;102602.69;2164789;40;113953;-56
2021/04/25 00:29:30;;;;;;;;;;;;;;;22.40;33.12;102607.19;2171574;40;114515;-56
2021/04/25 00:31:04;;;;;;;;;;;;;;;22.36;33.28;102606.06;2166932;40;113892;-57
2021/04/25 00:32:36;;;;;;;;;;;;;;;22.36;33.13;102608.03;2163978;40;114804;-57
2021/04/25 00:34:07;;;;;;;;;;;;;;;22.34;33.14;102602.69;2163317;40;115207;-55
2021/04/25 00:35:39;;;;;;;;;;;;;;;22.33;33.09;102594.50;2164062;40;115380;-57
2021/04/25 00:37:10;;;;;;;;;;;;;;;22.31;32.91;102591.97;2162966;40;114346;-57
2021/04/25 00:38:41;;;;;;;;;;;;;;;22.36;33.19;102594.78;2163941;40;114908;-55
2021/04/25 00:40:13;;;;;;;;;;;;;;;22.38;33.63;102614.25;2158566;40;115463;-58
2021/04/25 00:41:45;;;;;;;;;;;;;;;22.33;33.16;102609.44;2161869;40;115049;-58
2021/04/25 00:43:16;;;;;;;;;;;;;;;22.30;33.17;102607.19;2167007;40;115422;-57
2021/04/25 00:44:48;;;;;;;;;;;;;;;22.31;33.30;102602.38;2165143;40;114790;-56
2021/04/25 00:46:19;;;;;;;;;;;;;;;22.30;33.30;102604.38;2168874;40;115045;-58
2021/04/25 00:47:51;;;;;;;;;;;;;;;22.29;33.58;102601.84;2157153;40;114947;-57
2021/04/25 00:49:22;;;;;;;;;;;;;;;22.25;33.47;102603.53;2169738;40;115357;-57
2021/04/25 00:50:53;;;;;;;;;;;;;;;22.25;33.31;102595.94;2166234;40;115669;-58
2021/04/25 00:52:26;;;;;;;;;;;;;;;22.23;33.50;102598.16;2159984;40;115587;-56
2021/04/25 00:53:58;;;;;;;;;;;;;;;22.23;33.26;102600.97;2162314;40;115336;-59
2021/04/25 00:55:31;;;;;;;;;;;;;;;22.23;33.33;102600.97;2163076;40;115564;-57
2021/04/25 00:57:03;;;;;;;;;;;;;;;22.21;33.58;102592.00;2164122;40;115678;-59
2021/04/25 00:58:36;;;;;;;;;;;;;;;22.21;33.55;102597.63;2164308;40;115524;-58
2021/04/25 01:00:11;;;;;;;;;;;;;;;22.18;33.67;102598.16;2164470;40;115571;-58
2021/04/25 01:01:43;;;;;;;;;;;;;;;22.17;33.33;102602.94;2163966;40;115670;-57
2021/04/25 01:03:18;;;;;;;;;;;;;;;22.14;33.69;102591.41;2164661;40;115927;-60
2021/04/25 01:04:50;;;;;;;;;;;;;;;22.16;33.68;102600.44;2165245;40;117086;-57
2021/04/25 01:06:21;;;;;;;;;;;;;;;22.15;33.49;102604.34;2164893;40;116134;-58
2021/04/25 01:07:54;;;;;;;;;;;;;;;22.14;33.67;102597.03;2164203;40;115636;-58
2021/04/25 01:09:25;;;;;;;;;;;;;;;22.12;33.41;102593.66;2159827;40;116018;-54
2021/04/25 01:10:57;;;;;;;;;;;;;;;22.14;33.46;102585.75;2163962;40;115429;-56
2021/04/25 01:12:28;;;;;;;;;;;;;;;22.10;33.60;102595.91;2157131;40;113832;-60
2021/04/25 01:14:00;;;;;;;;;;;;;;;22.12;33.51;102588.03;2163341;40;114514;-55
2021/04/25 01:15:34;;;;;;;;;;;;;;;22.10;33.71;102585.50;2163650;40;113902;-60
2021/04/25 01:17:06;;;;;;;;;;;;;;;22.08;33.50;102589.69;2164153;40;114071;-57
2021/04/25 01:18:37;;;;;;;;;;;;;;;22.07;33.92;102588.88;2164519;40;116812;-58
2021/04/25 01:20:11;;;;;;;;;;;;;;;22.07;33.74;102586.06;2166414;40;114005;-57
2021/04/25 01:21:42;;;;;;;;;;;;;;;22.06;33.47;102589.13;2166680;40;114046;-56
2021/04/25 01:23:15;;;;;;;;;;;;;;;22.03;33.88;102587.72;2163247;40;113977;-57
2021/04/25 01:24:46;;;;;;;;;;;;;;;22.03;33.90;102590.53;2164010;40;114216;-58
2021/04/25 01:26:17;;;;;;;;;;;;;;;22.04;34.05;102582.94;2164112;40;113796;-58
2021/04/25 01:27:50;;;;;;;;;;;;;;;22.03;33.71;102589.72;2164974;40;114004;-57
2021/04/25 01:29:21;;;;;;;;;;;;;;;22.03;33.92;102586.88;2165272;40;113905;-55
2021/04/25 01:30:55;;;;;;;;;;;;;;;22.00;33.88;102582.66;2165507;40;113648;-58
2021/04/25 01:32:26;;;;;;;;;;;;;;;22.00;33.90;102591.09;2164375;40;113890;-56
2021/04/25 01:33:58;;;;;;;;;;;;;;;21.98;33.74;102592.50;2163735;40;114964;-56
2021/04/25 01:35:29;;;;;;;;;;;;;;;21.98;34.00;102598.13;2167091;40;115425;-59
2021/04/25 01:37:01;;;;;;;;;;;;;;;21.95;34.23;102593.91;2164591;40;116497;-56
2021/04/25 01:38:32;;;;;;;;;;;;;;;21.99;33.81;102602.63;2166042;40;115022;-58
2021/04/25 01:40:05;;;;;;;;;;;;;;;21.96;33.82;102600.38;2164139;40;114931;-58
2021/04/25 01:41:37;;;;;;;;;;;;;;;21.93;33.90;102600.94;2164229;40;114882;-58
2021/04/25 01:43:08;;;;;;;;;;;;;;;21.95;33.83;102595.84;2162384;40;114860;-57
2021/04/25 01:44:39;;;;;;;;;;;;;;;21.94;34.17;102597.00;2157242;40;114913;-57
2021/04/25 01:46:11;;;;;;;;;;;;;;;21.93;33.81;102598.13;2163528;40;115188;-60
2021/04/25 01:47:44;;;;;;;;;;;;;;;21.92;33.83;102593.56;2161474;40;113913;-57
2021/04/25 01:49:17;;;;;;;;;;;;;;;21.89;33.94;102602.59;2163709;40;114959;-58
2021/04/25 01:50:49;;;;;;;;;;;;;;;21.89;34.20;102599.78;2163803;40;115424;-55
2021/04/25 01:52:22;;;;;;;;;;;;;;;21.88;34.00;102600.88;2162943;40;115093;-56
2021/04/25 01:53:53;;;;;;;;;;;;;;;21.89;34.06;102606.25;2170155;40;114917;-56
2021/04/25 01:55:26;;;;;;;;;;;;;;;21.88;34.03;102600.88;2164741;40;115664;-55
2021/04/25 01:56:57;;;;;;;;;;;;;;;21.87;34.18;102602.00;2164380;40;115578;-60
2021/04/25 01:58:28;;;;;;;;;;;;;;;21.86;33.99;102600.31;2163685;40;115757;-56
2021/04/25 02:00:00;;;;;;;;;;;;;;;21.84;34.01;102597.78;2165809;40;115958;-57
2021/04/25 02:01:31;;;;;;;;;;;;;;;21.85;34.05;102607.09;2166086;40;115694;-56
2021/04/25 02:03:03;;;;;;;;;;;;;;;21.82;33.95;102591.59;2161535;40;116087;-58
2021/04/25 02:04:35;;;;;;;;;;;;;;;21.81;34.27;102595.50;2166001;40;115420;-57
2021/04/25 02:06:06;;;;;;;;;;;;;;;21.81;34.04;102597.47;2166929;40;115682;-56
2021/04/25 02:07:38;;;;;;;;;;;;;;;21.80;34.11;102598.63;2162513;40;115950;-59
2021/04/25 02:09:10;;;;;;;;;;;;;;;21.79;34.14;102599.72;2160196;40;115632;-58
2021/04/25 02:10:42;;;;;;;;;;;;;;;21.80;34.56;102595.81;2158452;40;115753;-58
2021/04/25 02:12:15;;;;;;;;;;;;;;;21.80;34.42;102590.19;2162544;40;115562;-57
2021/04/25 02:13:47;;;;;;;;;;;;;;;21.77;34.19;102596.34;2163797;40;115773;-56
2021/04/25 02:15:19;;;;;;;;;;;;;;;21.78;34.26;102595.22;2163565;40;115840;-57
2021/04/25 02:16:51;;;;;;;;;;;;;;;21.76;34.07;102592.69;2166701;40;116380;-57
2021/04/25 02:18:22;;;;;;;;;;;;;;;21.76;34.01;102591.88;2163399;40;113803;-59
2021/04/25 02:19:55;;;;;;;;;;;;;;;21.74;34.34;102600.56;2164535;40;114068;-54
2021/04/25 02:21:27;;;;;;;;;;;;;;;21.73;34.50;102596.06;2165943;40;114640;-57
2021/04/25 02:22:58;;;;;;;;;;;;;;;21.72;34.47;102589.59;2162699;40;113745;-58
2021/04/25 02:24:29;;;;;;;;;;;;;;;21.72;34.37;102594.34;2164306;40;113926;-57
2021/04/25 02:26:01;;;;;;;;;;;;;;;21.71;34.49;102587.88;2168057;40;113961;-55
2021/04/25 02:27:32;;;;;;;;;;;;;;;21.71;34.27;102587.88;2152835;40;116391;-59
2021/04/25 02:29:04;;;;;;;;;;;;;;;21.72;34.58;102595.19;2158677;40;113767;-58
2021/04/25 02:30:36;;;;;;;;;;;;;;;21.71;34.56;102585.06;2167233;40;113881;-56
2021/04/25 02:32:08;;;;;;;;;;;;;;;21.69;34.43;102590.16;2169399;40;114114;-56
2021/04/25 02:33:39;;;;;;;;;;;;;;;21.69;34.63;102590.16;2167718;40;114032;-56
2021/04/25 02:35:11;;;;;;;;;;;;;;;21.70;34.23;102602.25;2165093;40;113978;-59
2021/04/25 02:36:43;;;;;;;;;;;;;;;21.70;34.44;102589.03;2165574;40;113842;-58
2021/04/25 02:38:14;;;;;;;;;;;;;;;21.68;34.61;102588.44;2168580;40;114122;-61
2021/04/25 02:39:46;;;;;;;;;;;;;;;21.66;34.47;102592.66;2165271;40;115006;-58
2021/04/25 02:41:17;;;;;;;;;;;;;;;21.68;34.71;102596.03;2170251;40;114908;-59
2021/04/25 02:42:49;;;;;;;;;;;;;;;21.66;34.64;102596.34;2159257;40;115065;-56
2021/04/25 02:44:21;;;;;;;;;;;;;;;21.65;34.56;102591.81;2167484;40;115034;-56
2021/04/25 02:45:53;;;;;;;;;;;;;;;21.63;34.67;102588.41;2164755;40;114886;-57
2021/04/25 02:47:24;;;;;;;;;;;;;;;21.65;34.54;102588.16;2160605;40;114844;-58
2021/04/25 02:48:56;;;;;;;;;;;;;;;21.63;34.53;102591.25;2163523;40;114954;-57
2021/04/25 02:50:29;;;;;;;;;;;;;;;21.64;34.91;102587.31;2163046;40;116105;-56
2021/04/25 02:52:03;;;;;;;;;;;;;;;21.64;34.70;102592.09;2156733;40;115198;-57
2021/04/25 02:53:35;;;;;;;;;;;;;;;21.64;34.63;102594.91;2165786;40;114855;-57
2021/04/25 02:55:07;;;;;;;;;;;;;;;21.63;34.54;102585.59;2164037;40;115132;-54
2021/04/25 02:56:38;;;;;;;;;;;;;;;21.64;35.01;102587.31;2171981;40;115628;-59
2021/04/25 02:58:10;;;;;;;;;;;;;;;21.61;34.95;102587.88;2168785;40;113873;-55
2021/04/25 02:59:41;;;;;;;;;;;;;;;21.59;35.03;102590.09;2161205;40;115003;-54
2021/04/25 03:01:13;;;;;;;;;;;;;;;21.61;34.59;102592.66;2163548;40;115650;-58
2021/04/25 03:02:44;;;;;;;;;;;;;;;21.60;35.20;102596.56;2162939;40;115876;-57
2021/04/25 03:04:17;;;;;;;;;;;;;;;21.61;34.84;102603.91;2164240;40;114634;-58
2021/04/25 03:05:49;;;;;;;;;;;;;;;21.61;34.95;102604.75;2161930;40;115781;-56
2021/04/25 03:07:21;;;;;;;;;;;;;;;21.60;35.02;102602.19;2164827;40;115737;-58
2021/04/25 03:08:53;;;;;;;;;;;;;;;21.60;34.83;102600.25;2164969;40;115726;-58
2021/04/25 03:10:25;;;;;;;;;;;;;;;21.59;34.70;102601.34;2163958;40;116084;-58
2021/04/25 03:11:56;;;;;;;;;;;;;;;21.59;34.94;102597.69;2167029;40;116122;-56
2021/04/25 03:13:28;;;;;;;;;;;;;;;21.59;34.88;102589.25;2167770;40;116714;-60
2021/04/25 03:14:59;;;;;;;;;;;;;;;21.56;34.95;102593.47;2168381;40;115548;-59
2021/04/25 03:16:30;;;;;;;;;;;;;;;21.56;34.93;102599.09;2165087;40;115827;-57
2021/04/25 03:18:03;;;;;;;;;;;;;;;21.55;35.21;102594.59;2168300;40;115657;-57
2021/04/25 03:19:34;;;;;;;;;;;;;;;21.55;35.05;102590.94;2166930;40;116064;-57
2021/04/25 03:21:08;;;;;;;;;;;;;;;21.55;35.32;102590.94;2169401;40;115654;-54
2021/04/25 03:22:44;;;;;;;;;;;;;;;21.54;35.18;102589.22;2166424;40;113662;-59
2021/04/25 03:24:16;;;;;;;;;;;;;;;21.53;35.36;102585.56;2157700;40;114067;-58
2021/04/25 03:25:49;;;;;;;;;;;;;;;21.52;35.32;102583.06;2165759;40;114216;-56
2021/04/25 03:27:20;;;;;;;;;;;;;;;21.52;35.39;102585.88;2166456;40;114065;-58
2021/04/25 03:28:51;;;;;;;;;;;;;;;21.51;35.11;102586.97;2157940;40;114173;-60
2021/04/25 03:30:24;;;;;;;;;;;;;;;21.51;35.20;102584.16;2159648;40;114006;-59
2021/04/25 03:31:55;;;;;;;;;;;;;;;21.51;35.42;102581.34;2166069;40;113662;-56
2021/04/25 03:33:26;;;;;;;;;;;;;;;21.52;35.15;102583.06;2172049;40;113993;-58
2021/04/25 03:34:58;;;;;;;;;;;;;;;21.51;35.47;102572.91;2169688;40;113614;-56
2021/04/25 03:36:29;;;;;;;;;;;;;;;21.50;35.62;102574.03;2165618;40;113897;-58
2021/04/25 03:38:00;;;;;;;;;;;;;;;21.49;35.28;102572.31;2167443;40;113923;-59
2021/04/25 03:39:32;;;;;;;;;;;;;;;21.49;35.29;102580.78;2171820;40;113905;-55
2021/04/25 03:41:04;;;;;;;;;;;;;;;21.47;35.48;102581.06;2167131;40;113968;-57
2021/04/25 03:42:37;;;;;;;;;;;;;;;21.47;35.51;102577.41;2168347;40;113636;-61
2021/04/25 03:44:09;;;;;;;;;;;;;;;21.47;35.64;102578.25;2170687;40;113673;-58
2021/04/25 03:45:41;;;;;;;;;;;;;;;21.46;35.28;102575.69;2167492;40;115332;-55
2021/04/25 03:47:13;;;;;;;;;;;;;;;21.46;35.38;102578.53;2165598;40;115182;-59
2021/04/25 03:48:45;;;;;;;;;;;;;;;21.46;35.61;102572.91;2158733;40;114777;-58
2021/04/25 03:50:18;;;;;;;;;;;;;;;21.45;35.43;102571.19;2165473;40;115973;-56
2021/04/25 03:51:50;;;;;;;;;;;;;;;21.45;35.27;102572.03;2167621;40;115829;-57
2021/04/25 03:53:21;;;;;;;;;;;;;;;21.45;35.09;102572.03;2167700;40;114860;-56
2021/04/25 03:54:53;;;;;;;;;;;;;;;21.45;35.55;102566.41;2165534;40;115692;-58
2021/04/25 03:56:24;;;;;;;;;;;;;;;21.43;35.43;102568.69;2168213;40;115103;-59
2021/04/25 03:57:57;;;;;;;;;;;;;;;21.43;35.36;102576.25;2166213;40;115931;-59
2021/04/25 03:59:28;;;;;;;;;;;;;;;21.42;35.22;102577.38;2167982;40;114891;-59
2021/04/25 04:00:59;;;;;;;;;;;;;;;21.42;35.54;102575.41;2160636;40;114504;-60
2021/04/25 04:02:31;;;;;;;;;;;;;;;21.41;35.57;102570.91;2165530;40;114857;-56
2021/04/25 04:04:03;;;;;;;;;;;;;;;21.41;35.56;102579.34;2165484;40;115683;-56
2021/04/25 04:05:34;;;;;;;;;;;;;;;21.40;35.48;102579.59;2169439;40;114916;-60
2021/04/25 04:07:05;;;;;;;;;;;;;;;21.40;35.41;102574.81;2163299;40;115589;-60
2021/04/25 04:08:37;;;;;;;;;;;;;;;21.40;35.40;102580.44;2166195;40;115963;-57
2021/04/25 04:10:09;;;;;;;;;;;;;;;21.38;35.84;102576.25;2164950;40;115689;-57
2021/04/25 04:11:40;;;;;;;;;;;;;;;21.40;35.56;102579.59;2172821;40;115604;-60
2021/04/25 04:13:12;;;;;;;;;;;;;;;21.36;35.67;102576.50;2162409;40;115826;-54
2021/04/25 04:14:43;;;;;;;;;;;;;;;21.39;35.40;102577.94;2160958;40;115610;-55
2021/04/25 04:16:16;;;;;;;;;;;;;;;21.38;35.68;102587.50;2163717;40;115765;-55
2021/04/25 04:17:48;;;;;;;;;;;;;;;21.34;35.65;102592.81;2167673;40;115553;-58
2021/04/25 04:19:22;;;;;;;;;;;;;;;21.33;35.79;102591.13;2167361;40;115725;-57
2021/04/25 04:20:54;;;;;;;;;;;;;;;21.34;35.45;102586.34;2165814;40;115584;-56
2021/04/25 04:22:25;;;;;;;;;;;;;;;21.36;35.95;102586.91;2166605;40;115413;-55
2021/04/25 04:23:57;;;;;;;;;;;;;;;21.33;35.72;102593.94;2167639;40;115539;-57
2021/04/25 04:25:28;;;;;;;;;;;;;;;21.32;36.00;102588.56;2167991;40;115896;-56
2021/04/25 04:27:01;;;;;;;;;;;;;;;21.32;35.74;102595.03;2173733;40;115792;-57
2021/04/25 04:28:33;;;;;;;;;;;;;;;21.31;36.10;102593.34;2169128;40;114132;-61
2021/04/25 04:30:05;;;;;;;;;;;;;;;21.30;35.98;102592.50;2167970;40;114147;-55
2021/04/25 04:31:37;;;;;;;;;;;;;;;21.30;35.91;102592.50;2167815;40;113621;-59
2021/04/25 04:33:09;;;;;;;;;;;;;;;21.32;36.23;102603.47;2167660;40;115916;-58
2021/04/25 04:34:41;;;;;;;;;;;;;;;21.29;35.98;102602.06;2172736;40;114197;-57
2021/04/25 04:36:12;;;;;;;;;;;;;;;21.27;35.84;102600.63;2163675;40;113778;-58
2021/04/25 04:37:43;;;;;;;;;;;;;;;21.27;35.81;102597.81;2159063;40;113862;-60
2021/04/25 04:39:15;;;;;;;;;;;;;;;21.30;36.16;102602.94;2171958;40;113832;-57
2021/04/25 04:40:46;;;;;;;;;;;;;;;21.27;35.80;102601.50;2166398;40;114076;-59
2021/04/25 04:42:17;;;;;;;;;;;;;;;21.30;35.62;102597.31;2167923;40;114948;-56
2021/04/25 04:43:49;;;;;;;;;;;;;;;21.28;36.10;102603.19;2168164;40;113692;-57
2021/04/25 04:45:22;;;;;;;;;;;;;;;21.27;36.06;102598.69;2168337;40;113982;-56
2021/04/25 04:46:54;;;;;;;;;;;;;;;21.27;35.97;102598.69;2173006;40;113687;-56
2021/04/25 04:48:25;;;;;;;;;;;;;;;21.27;36.00;102603.44;2172429;40;113934;-59
2021/04/25 04:49:57;;;;;;;;;;;;;;;21.23;36.26;102599.50;2173337;40;115495;-60
2021/04/25 04:51:28;;;;;;;;;;;;;;;21.22;35.81;102590.22;2164713;40;115054;-57
2021/04/25 04:53:00;;;;;;;;;;;;;;;21.23;36.02;102596.69;2172391;40;114899;-55
2021/04/25 04:54:32;;;;;;;;;;;;;;;21.21;35.69;102594.13;2167287;40;115613;-58
2021/04/25 04:56:03;;;;;;;;;;;;;;;21.23;36.21;102593.88;2159440;40;115215;-60
2021/04/25 04:57:35;;;;;;;;;;;;;;;21.21;36.15;102593.31;2157980;40;115281;-55
2021/04/25 04:59:06;;;;;;;;;;;;;;;21.19;35.92;102589.91;2161291;40;115337;-58
2021/04/25 05:00:38;;;;;;;;;;;;;;;21.20;36.21;102591.63;2166116;40;115137;-59
2021/04/25 05:02:10;;;;;;;;;;;;;;;21.22;35.88;102595.00;2167370;40;115074;-60
2021/04/25 05:03:42;;;;;;;;;;;;;;;21.18;36.10;102589.06;2168583;40;115028;-58
2021/04/25 05:05:14;;;;;;;;;;;;;;;21.17;36.41;102584.56;2168447;40;114922;-57
2021/04/25 05:06:46;;;;;;;;;;;;;;;21.17;36.34;102595.81;2168449;40;115123;-56
2021/04/25 05:08:18;;;;;;;;;;;;;;;21.17;36.35;102592.16;2168425;40;115274;-59
2021/04/25 05:09:50;;;;;;;;;;;;;;;21.16;36.32;102596.94;2171068;40;115085;-56
2021/04/25 05:11:21;;;;;;;;;;;;;;;21.16;36.33;102591.31;2168241;40;115570;-58
2021/04/25 05:12:52;;;;;;;;;;;;;;;21.16;36.77;102598.91;2167573;40;116537;-57
2021/04/25 05:14:24;;;;;;;;;;;;;;;21.16;36.35;102598.91;2171402;40;115981;-56
2021/04/25 05:15:56;;;;;;;;;;;;;;;21.17;36.49;102601.44;2163215;40;115568;-56
2021/04/25 05:17:27;;;;;;;;;;;;;;;21.17;36.69;102607.06;2165683;40;116130;-59
2021/04/25 05:18:59;;;;;;;;;;;;;;;21.17;36.61;102609.84;2168240;40;116213;-60
2021/04/25 05:20:30;;;;;;;;;;;;;;;21.15;36.62;102612.13;2168095;40;115619;-59
2021/04/25 05:22:01;;;;;;;;;;;;;;;21.17;36.60;102617.44;2166993;40;115634;-59
2021/04/25 05:23:33;;;;;;;;;;;;;;;21.13;36.98;102614.34;2159341;40;115503;-59
2021/04/25 05:25:06;;;;;;;;;;;;;;;21.13;36.87;102617.16;2166158;40;115496;-60
2021/04/25 05:26:37;;;;;;;;;;;;;;;21.12;36.70;102617.41;2161287;40;115929;-59
2021/04/25 05:28:09;;;;;;;;;;;;;;;21.13;36.62;102619.09;2159915;40;115659;-55
2021/04/25 05:29:40;;;;;;;;;;;;;;;21.14;36.38;102615.19;2161511;40;115728;-59
2021/04/25 05:31:11;;;;;;;;;;;;;;;21.11;36.38;102608.13;2169698;40;116229;-54
2021/04/25 05:32:44;;;;;;;;;;;;;;;21.12;36.54;102614.59;2169979;40;116015;-57
2021/04/25 05:34:20;;;;;;;;;;;;;;;21.10;36.53;102608.38;2167729;40;113730;-54
2021/04/25 05:35:51;;;;;;;;;;;;;;;21.10;36.53;102614.84;2167747;40;113989;-57
2021/04/25 05:37:23;;;;;;;;;;;;;;;21.11;36.16;102610.94;2173641;40;114037;-58
2021/04/25 05:38:54;;;;;;;;;;;;;;;21.11;36.56;102612.91;2164585;40;113748;-56
2021/04/25 05:40:25;;;;;;;;;;;;;;;21.09;36.52;102615.13;2167803;40;114031;-57
2021/04/25 05:41:56;;;;;;;;;;;;;;;21.08;36.73;102619.03;2167069;40;114095;-57
2021/04/25 05:43:28;;;;;;;;;;;;;;;21.07;37.09;102623.84;2168286;40;113717;-57
2021/04/25 05:45:00;;;;;;;;;;;;;;;21.06;36.90;102619.34;2168094;40;114061;-58
2021/04/25 05:46:33;;;;;;;;;;;;;;;21.10;37.15;102620.47;2173506;40;113864;-58
2021/04/25 05:48:05;;;;;;;;;;;;;;;21.13;37.52;102619.97;2162361;40;113741;-56
2021/04/25 05:49:37;;;;;;;;;;;;;;;21.16;37.46;102618.59;2164720;40;113790;-57
2021/04/25 05:51:08;;;;;;;;;;;;;;;21.18;36.90;102611.56;2168457;40;114245;-56
2021/04/25 05:52:41;;;;;;;;;;;;;;;21.19;37.55;102610.44;2163294;40;113644;-59
2021/04/25 05:54:12;;;;;;;;;;;;;;;21.22;37.18;102623.09;2169579;40;113925;-59
2021/04/25 05:55:44;;;;;;;;;;;;;;;21.23;36.83;102620.03;2155735;40;115183;-55
2021/04/25 05:57:15;;;;;;;;;;;;;;;21.27;37.10;102626.78;2161290;40;115041;-60
2021/04/25 05:58:47;;;;;;;;;;;;;;;21.28;37.07;102622.03;2164837;40;115629;-59
2021/04/25 06:00:20;;;;;;;;;;;;;;;21.32;36.97;102630.75;2166640;40;115043;-60
2021/04/25 06:01:51;;;;;;;;;;;;;;;21.35;36.83;102633.03;2160993;40;114882;-57
2021/04/25 06:03:22;;;;;;;;;;;;;;;21.39;36.89;102628.56;2161607;40;115301;-60
2021/04/25 06:04:54;;;;;;;;;;;;;;;21.42;36.84;102633.63;2165796;40;114783;-57
2021/04/25 06:06:25;;;;;;;;;;;;;;;21.46;37.42;102641.22;2168279;40;115135;-57
2021/04/25 06:07:57;;;;;;;;;;;;;;;21.49;37.39;102635.06;2154397;40;115118;-58
2021/04/25 06:09:28;;;;;;;;;;;;;;;21.53;37.42;102626.94;2164531;40;114946;-56
2021/04/25 06:11:00;;;;;;;;;;;;;;;21.58;37.14;102633.41;2169337;40;115121;-56
2021/04/25 06:12:34;;;;;;;;;;;;;;;21.62;36.98;102636.53;2167981;40;113788;-57
2021/04/25 06:14:06;;;;;;;;;;;;;;;21.67;37.24;102633.72;2167842;40;115646;-60
2021/04/25 06:15:38;;;;;;;;;;;;;;;21.71;37.08;102638.53;2170676;40;115638;-58
2021/04/25 06:17:10;;;;;;;;;;;;;;;21.76;37.25;102648.94;2167198;40;115683;-55
2021/04/25 06:18:42;;;;;;;;;;;;;;;21.79;37.23;102650.38;2163904;40;115544;-59
2021/04/25 06:20:13;;;;;;;;;;;;;;;21.82;36.99;102645.03;2168111;40;115406;-56
2021/04/25 06:21:45;;;;;;;;;;;;;;;21.87;37.00;102650.69;2166095;40;115645;-56
2021/04/25 06:23:16;;;;;;;;;;;;;;;21.93;37.11;102657.22;2168300;40;116099;-56
2021/04/25 06:24:54;;;;;;;;;;;;;;;21.98;37.07;102651.63;2167658;40;115608;-58
2021/04/25 06:26:25;;;;;;;;;;;;;;;22.00;37.13;102650.19;2168300;40;116641;-61
2021/04/25 06:27:58;;;;;;;;;;;;;;;22.05;36.59;102657.81;2161381;40;115592;-57
2021/04/25 06:29:29;;;;;;;;;;;;;;;22.09;36.74;102648.53;2163227;40;115498;-57
2021/04/25 06:31:01;;;;;;;;;;;;;;;22.13;36.86;102657.25;2157833;40;115600;-57
2021/04/25 06:32:32;;;;;;;;;;;;;;;22.17;36.45;102661.22;2161489;40;115727;-58
2021/04/25 06:34:05;;;;;;;;;;;;;;;22.21;36.73;102667.16;2165542;40;115435;-56
2021/04/25 06:35:36;;;;;;;;;;;;;;;22.25;36.37;102669.13;2161507;40;115724;-57
2021/04/25 06:37:08;;;;;;;;;;;;;;;22.28;36.26;102671.38;2167880;40;115539;-58
2021/04/25 06:38:40;;;;;;;;;;;;;;;22.32;36.37;102666.88;2168150;40;113672;-59
2021/04/25 06:40:13;;;;;;;;;;;;;;;22.36;36.15;102668.00;2161015;40;116288;-54
2021/04/25 06:41:44;;;;;;;;;;;;;;;22.39;36.49;102661.84;2165523;40;113790;-56
2021/04/25 06:44:51;;;;;;;;;;;;;;;22.44;35.95;102661.81;2158056;40;113733;-57
2021/04/25 06:46:23;;;;;;;;;;;;;;;22.47;36.14;102668.88;2153409;40;113773;-55
2021/04/25 06:47:54;;;;;;;;;;;;;;;22.52;36.98;102661.28;2162866;40;113798;-58
2021/04/25 06:49:28;;;;;;;;;;;;;;;22.57;36.64;102666.09;2165343;40;113667;-59
2021/04/25 06:50:59;;;;;;;;;;;;;;;22.59;36.66;102661.84;2168083;40;113998;-55
2021/04/25 06:52:33;;;;;;;;;;;;;;;22.62;36.18;102658.47;2162632;40;114142;-58
2021/04/25 06:54:05;;;;;;;;;;;;;;;22.66;36.13;102664.41;2169487;40;114270;-57
2021/04/25 06:55:37;;;;;;;;;;;;;;;22.71;36.08;102666.41;2167596;40;114034;-56
2021/04/25 06:57:09;;;;;;;;;;;;;;;22.73;36.45;102667.81;2160445;40;114134;-54
2021/04/25 06:58:41;;;;;;;;;;;;;;;22.78;36.11;102661.31;2160276;40;114120;-54
2021/04/25 07:00:15;;;;;;;;;;;;;;;22.79;35.64;102663.03;2168088;40;114532;-58
2021/04/25 07:01:47;;;;;;;;;;;;;;;22.82;36.25;102666.13;2166895;40;114897;-57
2021/04/25 07:03:21;;;;;;;;;;;;;;;;;;2167852;40;113698;-58
2021/04/25 07:04:52;;;;;;;;;;;;;;;22.88;35.62;102679.09;2163682;40;144492;-61
2021/04/25 07:06:24;;;;;;;;;;;;;;;22.92;35.59;102676.53;2167329;40;114900;-54
2021/04/25 07:07:57;;;;;;;;;;;;;;;22.94;35.72;102668.66;2168125;40;114771;-59
2021/04/25 07:09:28;;;;;;;;;;;;;;;22.97;35.46;102677.38;2160289;40;114881;-56
2021/04/25 07:10:59;;;;;;;;;;;;;;;23.00;35.82;102675.97;2163944;40;115544;-61
2021/04/25 07:12:31;;;;;;;;;;;;;;;23.02;35.26;102673.72;2167744;40;114393;-56
2021/04/25 07:14:02;;;;;;;;;;;;;;;23.04;35.32;102672.28;2168175;40;115277;-56
2021/04/25 07:15:34;;;;;;;;;;;;;;;23.08;35.59;102672.56;2167275;40;115046;-57
2021/04/25 07:17:08;;;;;;;;;;;;;;;23.11;35.31;102676.81;2168015;40;114561;-54
2021/04/25 07:18:40;;;;;;;;;;;;;;;23.14;35.24;102677.06;2168065;40;114938;-57
2021/04/25 07:20:12;;;;;;;;;;;;;;;23.17;35.01;102682.13;2158433;40;115172;-57
2021/04/25 07:21:43;;;;;;;;;;;;;;;23.19;35.07;102676.22;2166432;40;114800;-56
2021/04/25 07:23:15;;;;;;;;;;;;;;;23.23;34.91;102688.63;2154036;40;115522;-59
2021/04/25 07:24:47;;;;;;;;;;;;;;;23.25;35.01;102686.38;2163815;40;115743;-60
2021/04/25 07:26:18;;;;;;;;;;;;;;;23.28;35.19;102691.44;2161507;40;115438;-56
2021/04/25 07:27:51;;;;;;;;;;;;;;;23.31;35.08;102688.88;2158719;40;116016;-54
2021/04/25 07:29:22;;;;;;;;;;;;;;;23.34;35.02;102695.94;2155099;40;115508;-56
2021/04/25 07:30:54;;;;;;;;;;;;;;;23.35;35.24;102692.81;2163613;40;114616;-57
2021/04/25 07:32:25;;;;;;;;;;;;;;;23.40;34.94;102691.97;2167761;40;115599;-57
2021/04/25 07:33:58;;;;;;;;;;;;;;;23.42;35.12;102687.75;2168123;40;115585;-56
2021/04/25 07:35:30;;;;;;;;;;;;;;;23.45;35.12;102697.63;2168191;40;115691;-59
2021/04/25 07:37:04;;;;;;;;;;;;;;;23.46;34.97;102691.72;2167474;40;115595;-56
2021/04/25 07:38:38;;;;;;;;;;;;;;;23.48;35.04;102700.72;2161301;40;115456;-56
2021/04/25 07:40:11;;;;;;;;;;;;;;;23.52;35.07;102705.81;2159791;40;115494;-58
2021/04/25 07:41:43;;;;;;;;;;;;;;;23.55;34.92;102700.44;2165309;40;115899;-58
2021/04/25 07:43:14;;;;;;;;;;;;;;;23.58;35.11;102701.81;2170005;40;115217;-59
2021/04/25 07:44:46;;;;;;;;;;;;;;;23.59;34.91;102697.88;2167490;40;113942;-53
2021/04/25 07:46:19;;;;;;;;;;;;;;;23.63;35.08;102696.16;2168089;40;113980;-58
2021/04/25 07:47:51;;;;;;;;;;;;;;;23.66;34.85;102692.78;2169910;40;114565;-54